Time;durP1;ratioP1;P1;durP2;ratioP2;P2;SDS_P1;SDS_P2;PMS_P1;PMS_P2;Temp;Humidity;BMP_temperature;BMP_pressure;BME280_temperature;BME280_humidity;BME280_pressure;Samples;Min_cycle;Max_cycle;Signal;HPM_P1;HPM_P2
2022/11/25 00:00:32;;;;;;;30.60;14.80;;;;;;;;;;107133;1300;22032;-80
2022/11/25 00:03:19;;;;;;;29.20;14.40;;;;;;;;;;106923;1307;22077;-80
2022/11/25 00:05:45;;;;;;;30.40;14.30;;;;;;;;;;106912;1292;22078;-79
2022/11/25 00:08:12;;;;;;;30.80;14.60;;;;;;;;;;106897;1307;22039;-80
2022/11/25 00:10:39;;;;;;;30.60;14.80;;;;;;;;;;106838;1307;22788;-79
2022/11/25 00:13:05;;;;;;;28.10;15.00;;;;;;;;;;106735;1309;22078;-79
2022/11/25 00:15:32;;;;;;;31.10;15.20;;;;;;;;;;106583;1309;22065;-79
2022/11/25 00:17:59;;;;;;;28.90;14.10;;;;;;;;;;106675;1308;22071;-80
2022/11/25 00:20:25;;;;;;;28.60;14.70;;;;;;;;;;106583;1303;22008;-79
2022/11/25 00:22:52;;;;;;;27.60;13.40;;;;;;;;;;106754;1307;21724;-80
2022/11/25 00:25:19;;;;;;;27.40;14.50;;;;;;;;;;106784;1308;22126;-79
2022/11/25 00:27:45;;;;;;;28.30;13.40;;;;;;;;;;106721;1307;22825;-80
2022/11/25 00:30:12;;;;;;;28.90;13.40;;;;;;;;;;106669;1307;22093;-80
2022/11/25 00:32:39;;;;;;;30.90;13.60;;;;;;;;;;106587;1309;22068;-80
2022/11/25 00:35:06;;;;;;;28.30;13.40;;;;;;;;;;106577;1298;22608;-79
2022/11/25 00:37:32;;;;;;;22.60;11.80;;;;;;;;;;106640;1310;22113;-79
2022/11/25 00:39:59;;;;;;;26.00;11.80;;;;;;;;;;106560;1293;22018;-80
2022/11/25 00:45:11;;;;;;;24.60;11.70;;;;;;;;;;106715;1309;22161;-79
2022/11/25 00:47:38;;;;;;;24.20;12.00;;;;;;;;;;106634;1310;22813;-79
2022/11/25 00:50:05;;;;;;;23.30;11.50;;;;;;;;;;106703;1304;22088;-79
2022/11/25 00:52:35;;;;;;;24.90;11.90;;;;;;;;;;106575;1292;22093;-79
2022/11/25 00:55:03;;;;;;;23.90;12.50;;;;;;;;;;106675;1310;22066;-79
2022/11/25 00:57:30;;;;;;;25.00;12.00;;;;;;;;;;106607;1309;22070;-79
2022/11/25 00:59:57;;;;;;;22.50;11.10;;;;;;;;;;106602;1309;22122;-79
2022/11/25 01:02:24;;;;;;;23.50;11.20;;;;;;;;;;106662;1302;22088;-80
2022/11/25 01:04:50;;;;;;;24.60;11.60;;;;;;;;;;106949;1300;22055;-79
2022/11/25 01:07:17;;;;;;;23.80;11.70;;;;;;;;;;106935;1300;22066;-79
2022/11/25 01:09:44;;;;;;;26.10;12.60;;;;;;;;;;106755;1307;22167;-79
2022/11/25 01:12:11;;;;;;;24.80;12.50;;;;;;;;;;106683;1309;22802;-79
2022/11/25 01:14:37;;;;;;;29.00;13.70;;;;;;;;;;106545;1304;22073;-79
2022/11/25 01:17:04;;;;;;;28.20;14.00;;;;;;;;;;106697;1309;22077;-79
2022/11/25 01:19:33;;;;;;;31.10;13.90;;;;;;;;;;106700;1310;22095;-79
2022/11/25 01:21:59;;;;;;;28.30;13.50;;;;;;;;;;107034;1285;22062;-80
2022/11/25 01:24:26;;;;;;;26.10;12.90;;;;;;;;;;106678;1307;22718;-79
2022/11/25 01:26:54;;;;;;;28.40;13.20;;;;;;;;;;107021;1302;22144;-79
2022/11/25 01:29:22;;;;;;;25.40;12.50;;;;;;;;;;106628;1295;21981;-79
2022/11/25 01:31:48;;;;;;;28.10;13.20;;;;;;;;;;107027;1297;21965;-79
2022/11/25 01:34:17;;;;;;;31.00;14.90;;;;;;;;;;106524;1310;22709;-79
2022/11/25 01:36:44;;;;;;;28.80;14.20;;;;;;;;;;106600;1309;21638;-79
2022/11/25 01:39:18;;;;;;;29.00;13.80;;;;;;;;;;106572;1304;22133;-79
2022/11/25 01:41:45;;;;;;;26.60;13.30;;;;;;;;;;106587;1308;22073;-79
2022/11/25 01:44:14;;;;;;;27.20;12.80;;;;;;;;;;106877;1307;22080;-79
2022/11/25 01:46:41;;;;;;;27.10;14.10;;;;;;;;;;106736;1309;22059;-79
2022/11/25 01:49:11;;;;;;;26.40;13.30;;;;;;;;;;106717;1295;22152;-79
2022/11/25 01:52:04;;;;;;;27.40;13.50;;;;;;;;;;106689;1310;22056;-79
2022/11/25 01:54:34;;;;;;;26.20;12.70;;;;;;;;;;106896;1301;22033;-79
2022/11/25 01:57:10;;;;;;;28.50;13.50;;;;;;;;;;106611;1309;22128;-79
2022/11/25 01:59:41;;;;;;;27.60;12.50;;;;;;;;;;106602;1304;22082;-79
2022/11/25 02:02:08;;;;;;;26.20;12.40;;;;;;;;;;106678;1309;22160;-79
2022/11/25 02:04:37;;;;;;;27.20;11.90;;;;;;;;;;106680;1303;22089;-79
2022/11/25 02:07:07;;;;;;;27.70;12.80;;;;;;;;;;106710;1309;22320;-79
2022/11/25 02:09:36;;;;;;;23.10;11.30;;;;;;;;;;106733;1309;22849;-79
2022/11/25 02:12:03;;;;;;;25.70;11.70;;;;;;;;;;106656;1310;22279;-79
2022/11/25 02:14:31;;;;;;;26.40;12.20;;;;;;;;;;106651;1310;22097;-79
2022/11/25 02:16:59;;;;;;;25.20;11.20;;;;;;;;;;106664;1309;21970;-79
2022/11/25 02:19:55;;;;;;;24.50;11.80;;;;;;;;;;106644;1309;22160;-79
2022/11/25 02:22:26;;;;;;;25.40;11.90;;;;;;;;;;106647;1309;22089;-79
2022/11/25 02:24:58;;;;;;;25.20;13.50;;;;;;;;;;106848;1307;22719;-79
2022/11/25 02:27:26;;;;;;;32.90;16.10;;;;;;;;;;106710;1310;22719;-79
2022/11/25 02:29:54;;;;;;;34.70;16.40;;;;;;;;;;106688;1309;22670;-80
2022/11/25 02:32:22;;;;;;;31.40;15.40;;;;;;;;;;106680;1310;22106;-79
2022/11/25 02:34:50;;;;;;;39.00;17.50;;;;;;;;;;106614;1308;22104;-79
2022/11/25 02:37:21;;;;;;;36.40;18.10;;;;;;;;;;106518;1309;22078;-79
2022/11/25 02:39:49;;;;;;;50.60;21.90;;;;;;;;;;106653;1303;22032;-79
2022/11/25 02:42:17;;;;;;;39.60;20.30;;;;;;;;;;106675;1309;22131;-80
2022/11/25 02:44:46;;;;;;;49.00;22.40;;;;;;;;;;106611;1310;22123;-79
2022/11/25 02:47:13;;;;;;;41.50;20.10;;;;;;;;;;106678;1310;21947;-79
2022/11/25 02:49:41;;;;;;;44.60;22.00;;;;;;;;;;106682;1309;21937;-79
2022/11/25 02:52:09;;;;;;;43.90;21.60;;;;;;;;;;106671;1310;22062;-80
2022/11/25 02:54:37;;;;;;;50.70;22.60;;;;;;;;;;106819;1296;22100;-79
2022/11/25 02:57:04;;;;;;;47.60;21.80;;;;;;;;;;106761;1309;22109;-79
2022/11/25 02:59:33;;;;;;;43.80;19.40;;;;;;;;;;106588;1309;22694;-79
2022/11/25 03:02:01;;;;;;;44.20;20.50;;;;;;;;;;106661;1309;22056;-79
2022/11/25 03:04:28;;;;;;;44.10;20.10;;;;;;;;;;106672;1309;22133;-79
2022/11/25 03:06:56;;;;;;;41.30;21.60;;;;;;;;;;106715;1310;21968;-79
2022/11/25 03:09:24;;;;;;;43.60;20.80;;;;;;;;;;106654;1310;22078;-79
2022/11/25 03:14:40;;;;;;;40.90;19.70;;;;;;;;;;106620;1309;22064;-79
2022/11/25 03:17:09;;;;;;;42.00;20.20;;;;;;;;;;106619;1310;22110;-79
2022/11/25 03:19:40;;;;;;;46.00;21.20;;;;;;;;;;106535;1309;22141;-78
2022/11/25 03:22:09;;;;;;;44.20;21.20;;;;;;;;;;106700;1309;22066;-79
2022/11/25 03:24:38;;;;;;;44.00;21.00;;;;;;;;;;106509;1310;22685;-79
2022/11/25 03:27:07;;;;;;;39.50;20.30;;;;;;;;;;106638;1309;22659;-79
2022/11/25 03:29:36;;;;;;;41.90;20.00;;;;;;;;;;106665;1310;22693;-79
2022/11/25 03:32:06;;;;;;;42.40;19.20;;;;;;;;;;106621;1310;22735;-79
2022/11/25 03:34:35;;;;;;;43.10;20.90;;;;;;;;;;106596;1310;22118;-79
2022/11/25 03:37:06;;;;;;;45.40;22.90;;;;;;;;;;106564;1309;22081;-79
2022/11/25 03:39:35;;;;;;;48.70;24.30;;;;;;;;;;106533;1310;22683;-80
2022/11/25 03:42:04;;;;;;;45.40;24.50;;;;;;;;;;106669;1310;22102;-80
2022/11/25 03:44:33;;;;;;;44.40;22.70;;;;;;;;;;106537;1308;23213;-80
2022/11/25 03:47:04;;;;;;;44.60;22.70;;;;;;;;;;106612;1310;22798;-79
2022/11/25 03:49:33;;;;;;;49.50;24.30;;;;;;;;;;106695;1310;22155;-79
2022/11/25 03:52:02;;;;;;;45.00;23.30;;;;;;;;;;106660;1309;22045;-79
2022/11/25 03:54:32;;;;;;;44.90;22.90;;;;;;;;;;106580;1310;22142;-79
2022/11/25 03:57:17;;;;;;;43.50;22.70;;;;;;;;;;106546;1310;22106;-79
2022/11/25 03:59:47;;;;;;;42.30;22.80;;;;;;;;;;106523;1309;22758;-79
2022/11/25 04:02:17;;;;;;;43.70;23.10;;;;;;;;;;106499;1309;21955;-79
2022/11/25 04:04:46;;;;;;;48.40;24.40;;;;;;;;;;106508;1309;22144;-79
2022/11/25 04:07:15;;;;;;;43.60;23.50;;;;;;;;;;106594;1310;22737;-79
2022/11/25 04:09:44;;;;;;;42.10;22.30;;;;;;;;;;106594;1301;22063;-79
2022/11/25 04:19:06;;;;;;;42.20;22.60;;;;;;;;;;100422;1340;545623;-85
2022/11/25 04:21:33;;;;;;;42.80;21.30;;;;;;;;;;102396;1304;24331;-81
2022/11/25 04:24:00;;;;;;;45.00;22.10;;;;;;;;;;102426;1315;22474;-79
2022/11/25 04:26:27;;;;;;;47.30;22.90;;;;;;;;;;102981;1310;24262;-84
2022/11/25 04:28:54;;;;;;;42.00;21.60;;;;;;;;;;102932;1313;22476;-80
2022/11/25 04:31:21;;;;;;;40.90;22.80;;;;;;;;;;102887;1313;22514;-80
2022/11/25 04:33:48;;;;;;;48.00;24.00;;;;;;;;;;102722;1306;1299810;-80
2022/11/25 04:36:14;;;;;;;50.40;23.60;;;;;;;;;;103633;1288;26475;-81
2022/11/25 04:38:41;;;;;;;43.30;23.10;;;;;;;;;;103821;1306;25609;-79
2022/11/25 04:41:08;;;;;;;46.40;23.00;;;;;;;;;;103556;1298;22706;-81
2022/11/25 04:43:38;;;;;;;42.80;22.30;;;;;;;;;;103599;1304;22810;-83
2022/11/25 04:46:13;;;;;;;38.30;21.00;;;;;;;;;;103546;1307;24333;-86
2022/11/25 04:48:40;;;;;;;42.10;22.40;;;;;;;;;;103539;1291;22480;-79
2022/11/25 04:51:07;;;;;;;44.30;22.30;;;;;;;;;;103575;1306;22481;-85
2022/11/25 04:53:33;;;;;;;48.00;23.80;;;;;;;;;;103546;1307;22462;-82
2022/11/25 04:56:00;;;;;;;51.40;25.00;;;;;;;;;;103755;1291;24317;-79
2022/11/25 05:01:15;;;;;;;49.60;23.80;;;;;;;;;;103259;1306;22470;-80
2022/11/25 05:03:47;;;;;;;48.10;22.40;;;;;;;;;;103367;1305;24219;-81
2022/11/25 05:06:14;;;;;;;47.60;22.40;;;;;;;;;;103416;1306;22600;-78
2022/11/25 05:08:42;;;;;;;50.40;25.30;;;;;;;;;;103506;1306;22481;-86
2022/11/25 05:11:09;;;;;;;52.00;26.40;;;;;;;;;;103427;1307;24850;-82
2022/11/25 05:13:37;;;;;;;47.80;24.30;;;;;;;;;;103373;1307;22484;-85
2022/11/25 05:16:04;;;;;;;45.60;22.80;;;;;;;;;;103507;1306;22503;-83
2022/11/25 05:18:31;;;;;;;53.70;27.60;;;;;;;;;;103409;1306;22558;-81
2022/11/25 05:21:02;;;;;;;50.90;25.20;;;;;;;;;;103338;1306;22467;-80
2022/11/25 05:23:29;;;;;;;45.70;23.90;;;;;;;;;;103546;1306;25532;-85
2022/11/25 05:26:02;;;;;;;50.00;25.00;;;;;;;;;;103513;1301;22418;-83
2022/11/25 05:28:35;;;;;;;44.40;22.60;;;;;;;;;;103491;1306;24238;-82
2022/11/25 05:31:03;;;;;;;46.10;24.20;;;;;;;;;;103552;1306;24317;-81
2022/11/25 05:33:30;;;;;;;50.80;24.80;;;;;;;;;;103331;1307;25335;-80
2022/11/25 05:35:59;;;;;;;48.90;24.80;;;;;;;;;;103560;1306;24790;-80
2022/11/25 05:38:30;;;;;;;46.40;23.20;;;;;;;;;;103460;1307;24268;-80
2022/11/25 05:41:02;;;;;;;44.50;23.50;;;;;;;;;;103498;1306;22470;-85
2022/11/25 05:43:29;;;;;;;43.80;22.90;;;;;;;;;;103482;1300;22520;-82
2022/11/25 05:45:56;;;;;;;49.30;24.00;;;;;;;;;;103526;1307;25364;-83
2022/11/25 05:48:23;;;;;;;45.10;24.50;;;;;;;;;;103526;1306;22477;-82
2022/11/25 05:50:50;;;;;;;48.00;23.30;;;;;;;;;;103401;1306;22500;-82
2022/11/25 05:53:19;;;;;;;47.60;23.80;;;;;;;;;;103476;1294;22722;-84
2022/11/25 05:55:53;;;;;;;44.10;23.20;;;;;;;;;;103391;1303;24313;-82
2022/11/25 05:58:23;;;;;;;45.00;22.30;;;;;;;;;;103558;1306;25528;-82
2022/11/25 06:00:52;;;;;;;48.40;23.80;;;;;;;;;;103444;1302;23887;-80
2022/11/25 06:03:19;;;;;;;47.70;24.10;;;;;;;;;;103415;1294;25298;-83
2022/11/25 06:05:46;;;;;;;47.10;24.10;;;;;;;;;;103379;1306;22472;-79
2022/11/25 06:08:13;;;;;;;46.00;22.90;;;;;;;;;;103161;1307;22507;-83
2022/11/25 06:10:40;;;;;;;43.80;22.90;;;;;;;;;;103537;1291;25283;-80
2022/11/25 06:13:08;;;;;;;49.10;22.70;;;;;;;;;;103732;1292;24320;-80
2022/11/25 06:15:39;;;;;;;47.40;23.70;;;;;;;;;;103404;1294;22503;-83
2022/11/25 06:18:06;;;;;;;41.00;22.60;;;;;;;;;;103370;1306;22478;-84
2022/11/25 06:20:34;;;;;;;47.80;24.10;;;;;;;;;;103393;1292;25514;-84
2022/11/25 06:23:00;;;;;;;63.30;29.40;;;;;;;;;;103416;1306;24314;-82
2022/11/25 06:25:31;;;;;;;62.90;29.70;;;;;;;;;;103617;1299;24476;-81
2022/11/25 06:27:58;;;;;;;62.20;29.00;;;;;;;;;;103404;1306;24251;-80
2022/11/25 06:30:25;;;;;;;62.60;28.50;;;;;;;;;;103481;1306;25295;-84
2022/11/25 06:33:09;;;;;;;63.40;28.10;;;;;;;;;;103536;1307;22470;-85
2022/11/25 06:35:36;;;;;;;72.20;30.70;;;;;;;;;;103423;1304;22458;-81
2022/11/25 06:38:03;;;;;;;66.40;29.80;;;;;;;;;;106893;1300;22191;-78
2022/11/25 06:40:29;;;;;;;63.20;28.70;;;;;;;;;;106920;1297;21951;-78
2022/11/25 06:42:56;;;;;;;80.70;36.40;;;;;;;;;;106915;1300;22759;-78
2022/11/25 06:45:23;;;;;;;93.80;44.70;;;;;;;;;;106914;1306;22040;-78
2022/11/25 06:47:49;;;;;;;69.70;31.20;;;;;;;;;;106991;1306;22103;-78
2022/11/25 06:50:16;;;;;;;65.10;29.80;;;;;;;;;;106953;1306;22088;-78
2022/11/25 06:52:43;;;;;;;56.00;26.30;;;;;;;;;;106905;1301;22239;-78
2022/11/25 06:55:09;;;;;;;56.20;27.10;;;;;;;;;;106948;1297;22042;-78
2022/11/25 06:57:36;;;;;;;96.10;44.50;;;;;;;;;;106926;1292;22787;-78
2022/11/25 07:00:03;;;;;;;77.50;36.10;;;;;;;;;;107128;1285;22777;-78
2022/11/25 07:02:30;;;;;;;66.40;30.50;;;;;;;;;;106865;1303;22132;-78
2022/11/25 07:04:57;;;;;;;78.10;34.20;;;;;;;;;;107226;1298;22139;-78
2022/11/25 07:07:24;;;;;;;80.80;34.30;;;;;;;;;;106959;1306;22290;-78
2022/11/25 07:09:50;;;;;;;68.70;33.00;;;;;;;;;;106990;1298;22131;-78
2022/11/25 07:12:17;;;;;;;75.80;35.40;;;;;;;;;;106917;1306;22861;-78
2022/11/25 07:14:44;;;;;;;78.50;36.50;;;;;;;;;;106901;1306;22127;-78
2022/11/25 07:17:10;;;;;;;91.50;39.30;;;;;;;;;;106942;1306;22071;-78
2022/11/25 07:19:37;;;;;;;103.20;43.10;;;;;;;;;;106937;1306;22088;-77
2022/11/25 07:22:04;;;;;;;88.40;39.40;;;;;;;;;;107088;1300;22127;-78
2022/11/25 07:24:32;;;;;;;79.80;34.10;;;;;;;;;;106887;1307;22709;-78
2022/11/25 07:26:59;;;;;;;70.70;32.70;;;;;;;;;;106866;1307;22073;-78
2022/11/25 07:29:26;;;;;;;41.20;18.60;;;;;;;;;;107275;1288;22036;-78
2022/11/25 07:31:53;;;;;;;46.40;18.10;;;;;;;;;;106898;1307;22084;-78
2022/11/25 07:34:20;;;;;;;30.10;15.30;;;;;;;;;;106915;1306;22761;-78
2022/11/25 07:36:47;;;;;;;25.90;13.70;;;;;;;;;;106913;1306;22114;-78
2022/11/25 07:39:16;;;;;;;27.10;13.60;;;;;;;;;;106938;1306;22775;-78
2022/11/25 07:41:43;;;;;;;32.60;12.90;;;;;;;;;;106853;1307;22044;-78
2022/11/25 07:44:11;;;;;;;29.60;12.00;;;;;;;;;;106877;1307;22068;-78
2022/11/25 07:46:46;;;;;;;33.60;12.20;;;;;;;;;;106921;1307;22079;-78
2022/11/25 07:49:16;;;;;;;30.30;14.10;;;;;;;;;;106853;1306;22073;-78
2022/11/25 07:51:47;;;;;;;27.40;14.00;;;;;;;;;;106928;1307;22885;-78
2022/11/25 07:54:14;;;;;;;34.00;15.50;;;;;;;;;;107080;1299;22246;-78
2022/11/25 07:56:43;;;;;;;34.30;16.10;;;;;;;;;;106940;1306;21961;-78
2022/11/25 07:59:14;;;;;;;32.80;14.40;;;;;;;;;;106933;1306;22024;-78
2022/11/25 08:01:41;;;;;;;33.00;13.60;;;;;;;;;;107134;1292;21982;-78
2022/11/25 08:04:09;;;;;;;25.40;12.00;;;;;;;;;;106810;1307;22067;-78
2022/11/25 08:06:37;;;;;;;22.60;10.00;;;;;;;;;;107269;1298;22051;-78
2022/11/25 08:09:04;;;;;;;21.50;9.60;;;;;;;;;;107148;1300;22063;-78
2022/11/25 08:11:31;;;;;;;23.60;9.00;;;;;;;;;;106876;1307;22136;-78
2022/11/25 08:13:58;;;;;;;20.50;8.60;;;;;;;;;;106901;1306;22035;-78
2022/11/25 08:16:26;;;;;;;18.00;8.30;;;;;;;;;;107119;1299;22038;-78
2022/11/25 08:18:53;;;;;;;20.80;9.10;;;;;;;;;;106844;1306;22136;-78
2022/11/25 08:21:20;;;;;;;23.00;9.70;;;;;;;;;;107094;1300;21918;-78
2022/11/25 08:23:47;;;;;;;26.60;10.30;;;;;;;;;;106864;1307;21936;-78
2022/11/25 08:26:35;;;;;;;24.20;10.40;;;;;;;;;;107226;1292;22524;-78
2022/11/25 08:29:03;;;;;;;27.90;10.70;;;;;;;;;;106791;1302;22838;-78
2022/11/25 08:31:34;;;;;;;28.60;10.40;;;;;;;;;;106731;1307;22078;-78
2022/11/25 08:34:00;;;;;;;29.50;11.70;;;;;;;;;;106904;1306;22062;-79
2022/11/25 08:36:28;;;;;;;36.80;12.90;;;;;;;;;;106903;1295;22124;-78
2022/11/25 08:38:58;;;;;;;37.30;15.00;;;;;;;;;;106750;1307;22201;-78
2022/11/25 08:41:27;;;;;;;33.40;14.90;;;;;;;;;;106724;1306;22718;-78
2022/11/25 08:43:55;;;;;;;32.60;14.70;;;;;;;;;;106715;1307;21952;-78
2022/11/25 08:46:22;;;;;;;37.50;15.50;;;;;;;;;;107119;1297;22050;-78
2022/11/25 08:48:50;;;;;;;35.60;15.40;;;;;;;;;;107255;1295;22044;-78
2022/11/25 08:51:19;;;;;;;29.80;11.70;;;;;;;;;;106937;1306;22773;-78
2022/11/25 08:53:46;;;;;;;23.40;10.50;;;;;;;;;;106828;1307;22689;-78
2022/11/25 08:56:13;;;;;;;24.00;10.90;;;;;;;;;;106735;1301;22089;-78
2022/11/25 08:58:40;;;;;;;26.50;11.30;;;;;;;;;;106929;1306;22068;-78
2022/11/25 09:01:07;;;;;;;25.70;12.90;;;;;;;;;;106731;1307;22094;-79
2022/11/25 09:03:35;;;;;;;30.60;13.80;;;;;;;;;;106729;1307;22082;-78
2022/11/25 09:06:03;;;;;;;28.30;13.50;;;;;;;;;;107214;1285;22758;-78
2022/11/25 09:08:30;;;;;;;33.30;15.60;;;;;;;;;;106847;1307;22745;-78
2022/11/25 09:10:57;;;;;;;35.90;15.40;;;;;;;;;;106943;1307;22114;-78
2022/11/25 09:13:24;;;;;;;33.30;17.20;;;;;;;;;;106719;1309;22119;-78
2022/11/25 09:15:51;;;;;;;26.90;16.40;;;;;;;;;;106636;1310;22111;-78
2022/11/25 09:18:19;;;;;;;26.80;15.20;;;;;;;;;;106660;1311;21991;-78
2022/11/25 09:20:46;;;;;;;30.30;14.20;;;;;;;;;;106658;1310;22078;-78
2022/11/25 09:23:13;;;;;;;27.40;13.60;;;;;;;;;;106661;1309;22084;-78
2022/11/25 09:25:39;;;;;;;26.90;14.40;;;;;;;;;;106718;1310;22078;-78
2022/11/25 09:28:06;;;;;;;28.60;15.20;;;;;;;;;;106854;1310;22132;-78
2022/11/25 09:30:33;;;;;;;27.50;14.60;;;;;;;;;;106718;1309;22069;-78
2022/11/25 09:32:59;;;;;;;26.30;13.40;;;;;;;;;;106715;1309;22729;-78
2022/11/25 09:35:26;;;;;;;25.90;12.40;;;;;;;;;;106646;1311;22125;-78
2022/11/25 09:37:53;;;;;;;31.20;15.20;;;;;;;;;;107052;1287;22783;-78
2022/11/25 09:40:26;;;;;;;30.40;14.50;;;;;;;;;;106746;1308;22108;-78
2022/11/25 09:48:58;;;;;;;25.20;11.50;;;;;;;;;;106862;1309;22032;-78
2022/11/25 09:51:31;;;;;;;28.20;13.40;;;;;;;;;;106676;1310;22074;-78
2022/11/25 09:54:20;;;;;;;29.20;13.00;;;;;;;;;;106724;1302;22084;-78
2022/11/25 09:56:51;;;;;;;29.30;13.50;;;;;;;;;;106659;1309;22352;-78
2022/11/25 09:59:19;;;;;;;32.30;15.20;;;;;;;;;;106701;1309;22090;-78
2022/11/25 10:01:54;;;;;;;32.10;14.50;;;;;;;;;;106928;1301;21959;-78
2022/11/25 10:04:24;;;;;;;39.60;15.10;;;;;;;;;;106927;1294;21902;-78
2022/11/25 10:06:54;;;;;;;31.50;14.40;;;;;;;;;;106952;1299;22082;-78
2022/11/25 10:09:22;;;;;;;30.40;13.80;;;;;;;;;;106887;1309;22667;-78
2022/11/25 10:11:57;;;;;;;28.90;13.90;;;;;;;;;;106882;1310;22821;-78
2022/11/25 10:14:44;;;;;;;28.20;13.80;;;;;;;;;;106746;1309;22802;-78
2022/11/25 10:17:25;;;;;;;28.40;14.60;;;;;;;;;;106666;1311;22100;-78
2022/11/25 10:20:01;;;;;;;26.70;14.40;;;;;;;;;;106787;1294;22741;-78
2022/11/25 10:22:32;;;;;;;29.30;14.20;;;;;;;;;;106606;1312;22659;-78
2022/11/25 10:25:01;;;;;;;30.90;15.70;;;;;;;;;;106624;1305;22117;-78
2022/11/25 10:27:46;;;;;;;28.80;15.40;;;;;;;;;;106687;1311;21970;-78
2022/11/25 10:30:23;;;;;;;28.30;15.90;;;;;;;;;;106715;1309;22099;-78
2022/11/25 10:32:52;;;;;;;28.70;15.90;;;;;;;;;;106714;1309;22395;-78
2022/11/25 10:35:22;;;;;;;27.60;15.00;;;;;;;;;;106712;1300;22065;-78
2022/11/25 10:37:53;;;;;;;34.20;17.60;;;;;;;;;;106635;1312;22060;-78
2022/11/25 10:40:21;;;;;;;33.00;16.90;;;;;;;;;;106942;1300;22038;-78
2022/11/25 10:42:47;;;;;;;30.90;15.50;;;;;;;;;;106955;1304;22047;-78
2022/11/25 10:45:14;;;;;;;30.30;16.10;;;;;;;;;;106885;1289;22142;-78
2022/11/25 10:47:59;;;;;;;29.70;16.10;;;;;;;;;;106684;1309;22107;-78
2022/11/25 10:50:32;;;;;;;33.50;15.50;;;;;;;;;;106683;1299;22054;-78
2022/11/25 10:53:09;;;;;;;38.50;17.90;;;;;;;;;;106680;1309;22001;-78
2022/11/25 10:55:36;;;;;;;32.10;16.50;;;;;;;;;;106701;1310;22074;-78
2022/11/25 10:58:19;;;;;;;30.10;14.20;;;;;;;;;;106675;1311;22666;-78
2022/11/25 11:00:45;;;;;;;37.20;17.10;;;;;;;;;;106791;1300;21627;-78
2022/11/25 11:03:21;;;;;;;37.80;17.10;;;;;;;;;;106578;1309;22047;-78
2022/11/25 11:05:50;;;;;;;39.50;19.00;;;;;;;;;;106586;1310;22124;-78
2022/11/25 11:08:21;;;;;;;40.30;18.70;;;;;;;;;;106858;1303;22800;-78
2022/11/25 11:11:07;;;;;;;36.70;18.40;;;;;;;;;;106881;1303;22059;-78
2022/11/25 11:13:34;;;;;;;33.40;15.90;;;;;;;;;;106674;1309;22770;-78
2022/11/25 11:16:00;;;;;;;24.80;12.30;;;;;;;;;;106676;1309;22932;-78
2022/11/25 11:18:36;;;;;;;22.80;11.30;;;;;;;;;;106853;1303;22673;-78
2022/11/25 11:21:09;;;;;;;23.70;12.10;;;;;;;;;;106655;1310;22071;-78
2022/11/25 11:23:47;;;;;;;23.90;11.60;;;;;;;;;;106651;1310;22095;-79
2022/11/25 11:26:40;;;;;;;25.90;12.00;;;;;;;;;;106594;1310;22064;-79
2022/11/25 11:29:14;;;;;;;21.70;12.50;;;;;;;;;;106620;1310;22082;-78
2022/11/25 11:31:46;;;;;;;21.90;12.90;;;;;;;;;;106916;1295;22077;-78
2022/11/25 11:34:19;;;;;;;21.60;10.30;;;;;;;;;;106648;1309;22821;-79
2022/11/25 11:36:49;;;;;;;27.00;12.00;;;;;;;;;;106691;1310;22766;-79
2022/11/25 11:39:34;;;;;;;27.20;12.90;;;;;;;;;;106647;1310;22089;-78
2022/11/25 11:42:01;;;;;;;27.20;12.60;;;;;;;;;;106553;1310;22825;-79
2022/11/25 11:44:46;;;;;;;21.60;10.80;;;;;;;;;;106910;1302;22029;-79
2022/11/25 11:47:16;;;;;;;23.10;10.10;;;;;;;;;;106920;1291;22357;-78
2022/11/25 11:49:58;;;;;;;25.60;11.50;;;;;;;;;;106648;1310;22145;-78
2022/11/25 11:52:31;;;;;;;29.50;10.90;;;;;;;;;;106920;1302;22035;-78
2022/11/25 11:55:18;;;;;;;20.40;9.50;;;;;;;;;;106666;1310;22071;-78
2022/11/25 11:57:48;;;;;;;20.40;9.70;;;;;;;;;;106642;1302;22106;-79
2022/11/25 12:00:16;;;;;;;18.90;9.80;;;;;;;;;;106650;1310;22187;-79
2022/11/25 12:03:02;;;;;;;24.80;11.50;;;;;;;;;;106575;1311;22090;-78
2022/11/25 12:05:32;;;;;;;20.80;10.10;;;;;;;;;;106672;1310;22662;-78
2022/11/25 12:07:59;;;;;;;20.90;11.00;;;;;;;;;;106628;1310;22836;-79
2022/11/25 12:10:31;;;;;;;26.30;15.80;;;;;;;;;;106666;1310;22106;-79
2022/11/25 12:12:58;;;;;;;23.90;12.40;;;;;;;;;;106639;1310;22093;-79
2022/11/25 12:15:34;;;;;;;19.80;11.30;;;;;;;;;;106649;1310;22734;-78
2022/11/25 12:18:03;;;;;;;29.20;13.70;;;;;;;;;;106578;1310;22107;-80
2022/11/25 12:20:41;;;;;;;19.40;10.00;;;;;;;;;;106550;1306;22058;-79
2022/11/25 12:23:23;;;;;;;18.90;9.80;;;;;;;;;;106634;1304;22024;-79
2022/11/25 12:25:55;;;;;;;19.40;9.90;;;;;;;;;;106656;1310;22760;-79
2022/11/25 12:28:35;;;;;;;20.50;10.00;;;;;;;;;;106616;1310;22124;-79
2022/11/25 12:31:09;;;;;;;18.80;9.80;;;;;;;;;;106636;1310;22057;-79
2022/11/25 12:33:56;;;;;;;19.90;10.10;;;;;;;;;;106629;1310;21989;-79
2022/11/25 12:36:42;;;;;;;23.40;11.10;;;;;;;;;;106641;1310;22150;-79
2022/11/25 12:39:18;;;;;;;20.40;10.70;;;;;;;;;;106578;1312;21955;-79
2022/11/25 12:41:50;;;;;;;22.50;10.90;;;;;;;;;;106636;1310;22067;-79
2022/11/25 12:44:23;;;;;;;20.30;10.20;;;;;;;;;;106634;1311;22079;-79
2022/11/25 12:46:53;;;;;;;22.10;11.00;;;;;;;;;;106599;1310;22075;-79
2022/11/25 12:49:24;;;;;;;25.30;11.60;;;;;;;;;;106633;1304;22167;-79
2022/11/25 12:51:55;;;;;;;21.60;10.60;;;;;;;;;;106648;1310;22144;-80
2022/11/25 12:54:32;;;;;;;19.80;9.60;;;;;;;;;;106634;1310;22068;-79
2022/11/25 12:57:19;;;;;;;15.70;8.70;;;;;;;;;;106599;1310;22050;-80
2022/11/25 12:59:59;;;;;;;17.00;8.20;;;;;;;;;;106551;1309;22130;-79
2022/11/25 13:02:56;;;;;;;15.20;8.10;;;;;;;;;;106523;1311;22781;-79
2022/11/25 13:05:27;;;;;;;26.40;10.80;;;;;;;;;;106615;1309;22059;-79
2022/11/25 13:08:23;;;;;;;23.00;10.60;;;;;;;;;;106774;1304;22045;-80
2022/11/25 13:10:51;;;;;;;23.50;11.20;;;;;;;;;;106502;1309;21905;-79
2022/11/25 13:13:44;;;;;;;19.20;10.30;;;;;;;;;;106666;1310;22204;-80
2022/11/25 13:16:14;;;;;;;18.80;9.80;;;;;;;;;;106657;1310;22776;-80
2022/11/25 13:18:43;;;;;;;20.20;10.10;;;;;;;;;;106589;1311;22480;-79
2022/11/25 13:21:14;;;;;;;22.20;11.00;;;;;;;;;;106595;1311;22720;-80
2022/11/25 13:23:50;;;;;;;20.80;11.30;;;;;;;;;;106536;1310;22744;-80
2022/11/25 13:26:35;;;;;;;23.00;11.70;;;;;;;;;;106639;1310;22691;-80
2022/11/25 13:29:31;;;;;;;28.80;14.90;;;;;;;;;;106627;1310;22205;-80
2022/11/25 13:32:04;;;;;;;23.40;12.90;;;;;;;;;;106570;1312;22976;-80
2022/11/25 13:34:34;;;;;;;22.50;11.90;;;;;;;;;;106527;1304;22107;-81
2022/11/25 13:37:22;;;;;;;20.70;10.90;;;;;;;;;;106589;1312;22093;-80
2022/11/25 13:40:12;;;;;;;27.80;11.30;;;;;;;;;;106517;1304;22043;-78
2022/11/25 13:42:44;;;;;;;19.80;10.50;;;;;;;;;;106634;1310;22077;-78
2022/11/25 13:45:25;;;;;;;23.60;10.80;;;;;;;;;;106590;1310;22056;-79
2022/11/25 13:47:55;;;;;;;25.30;11.50;;;;;;;;;;106633;1310;22078;-79
2022/11/25 13:50:25;;;;;;;30.20;12.40;;;;;;;;;;106609;1310;22329;-79
2022/11/25 13:53:01;;;;;;;25.00;12.10;;;;;;;;;;106569;1313;22105;-79
2022/11/25 13:55:38;;;;;;;22.10;11.80;;;;;;;;;;106547;1313;22126;-79
2022/11/25 13:58:25;;;;;;;25.30;12.30;;;;;;;;;;106645;1310;22793;-78
2022/11/25 14:01:02;;;;;;;26.00;12.30;;;;;;;;;;106495;1310;22133;-79
2022/11/25 14:03:51;;;;;;;24.30;10.90;;;;;;;;;;106469;1313;22108;-79
2022/11/25 14:06:51;;;;;;;24.50;10.20;;;;;;;;;;106617;1312;22104;-79
2022/11/25 14:09:25;;;;;;;22.30;11.20;;;;;;;;;;106570;1311;22103;-80
2022/11/25 14:22:25;;;;;;;19.50;9.00;;;;;;;;;;100805;1311;544940;-83
2022/11/25 14:24:54;;;;;;;20.00;9.00;;;;;;;;;;102414;1298;25505;-85
2022/11/25 14:27:24;;;;;;;21.90;9.90;;;;;;;;;;102351;1301;22501;-81
2022/11/25 14:29:53;;;;;;;21.60;10.70;;;;;;;;;;102285;1320;22505;-80
2022/11/25 14:32:25;;;;;;;22.20;11.00;;;;;;;;;;102382;1320;22487;-81
2022/11/25 14:35:12;;;;;;;23.70;10.30;;;;;;;;;;101229;1319;1640869;-83
2022/11/25 14:37:43;;;;;;;27.10;11.00;;;;;;;;;;103567;1306;25347;-80
2022/11/25 14:40:16;;;;;;;26.40;11.80;;;;;;;;;;103474;1307;22476;-83
2022/11/25 14:42:45;;;;;;;28.20;12.30;;;;;;;;;;103673;1298;22705;-80
2022/11/25 14:45:38;;;;;;;30.30;12.70;;;;;;;;;;103367;1306;24234;-80
2022/11/25 14:48:16;;;;;;;30.20;12.70;;;;;;;;;;103372;1309;22725;-82
2022/11/25 14:58:06;;;;;;;33.80;15.40;;;;;;;;;;100206;1322;548172;-81
2022/11/25 15:00:32;;;;;;;41.30;19.10;;;;;;;;;;102110;1302;24282;-80
2022/11/25 15:03:00;;;;;;;39.80;18.40;;;;;;;;;;102437;1302;24295;-81